Terminal Aerodrome Forecast
Issued by NWS Cleveland, OH

Home | Current Version | Previous Version | Graphics & Text | Print | Product List | Glossary On
Versions: 1 2 3 4 5 6 7 8 9 10 11 12 13 14 15 16 17 18 19 20 21
561
FTUS41 KCLE 272341
TAFCAK
TAF
KCAK 272341Z 2800/2824 VRB04KT P6SM VCSH BKN120 OVC250
     FM280400 06004KT 5SM BR SCT015 OVC025
     FM280800 07004KT 4SM -RA BR SCT006 OVC012
      TEMPO 2811/2815 2SM -RA BR OVC006
     FM281700 36010KT P6SM BKN008 OVC015=

USA.gov is the U.S. government's official web portal to all federal, state and local government web resources and services.